createdAt,value
2018-05-29T00:01:37.793Z,22.09
2018-05-29T00:06:40.296Z,21.88
2018-05-29T00:11:42.866Z,21.82
2018-05-29T00:16:45.318Z,21.98
2018-05-29T00:21:47.840Z,21.99
2018-05-29T00:26:50.333Z,21.91
2018-05-29T00:31:52.861Z,21.73
2018-05-29T00:36:55.460Z,21.73
2018-05-29T00:41:58.036Z,21.70
2018-05-29T00:47:00.568Z,21.71
2018-05-29T00:52:03.075Z,21.51
2018-05-29T00:57:05.566Z,21.30
2018-05-29T01:02:08.555Z,21.18
2018-05-29T01:07:11.516Z,21.19
2018-05-29T01:12:14.007Z,21.09
2018-05-29T01:17:16.483Z,21.05
2018-05-29T01:22:18.997Z,20.97
2018-05-29T01:27:21.554Z,20.82
2018-05-29T01:32:24.079Z,20.73
2018-05-29T01:37:26.579Z,20.58
2018-05-29T01:42:29.045Z,20.46
2018-05-29T01:47:31.561Z,20.40
2018-05-29T01:52:34.096Z,20.11
2018-05-29T01:57:36.609Z,19.91
2018-05-29T02:02:39.355Z,19.74
2018-05-29T02:07:41.839Z,19.65
2018-05-29T02:12:44.310Z,19.48
2018-05-29T02:17:46.800Z,19.45
2018-05-29T02:22:49.304Z,19.41
2018-05-29T02:27:51.827Z,19.37
2018-05-29T02:32:54.401Z,19.11
2018-05-29T02:37:56.915Z,19.02
2018-05-29T02:42:59.415Z,18.88
2018-05-29T02:48:01.943Z,18.85
2018-05-29T02:53:05.372Z,18.99
2018-05-29T02:58:07.884Z,19.08
2018-05-29T03:03:10.359Z,19.02
2018-05-29T03:08:12.887Z,18.90
2018-05-29T03:13:15.364Z,18.98
2018-05-29T03:18:17.868Z,19.00
2018-05-29T03:23:20.385Z,19.03
2018-05-29T03:28:22.903Z,18.95
2018-05-29T03:33:25.555Z,19.12
2018-05-29T03:38:28.882Z,19.25
2018-05-29T03:43:31.365Z,19.26
2018-05-29T03:48:33.916Z,19.19
2018-05-29T03:53:36.401Z,19.23
2018-05-29T03:58:38.859Z,19.35
2018-05-29T04:03:42.083Z,19.46
2018-05-29T04:08:44.618Z,19.59
2018-05-29T04:13:47.147Z,19.75
2018-05-29T04:18:49.823Z,19.89
2018-05-29T04:23:52.463Z,20.46
2018-05-29T04:28:55.051Z,25.83
2018-05-29T04:33:58.583Z,28.63
2018-05-29T04:39:01.097Z,30.33
2018-05-29T04:44:03.591Z,32.42
2018-05-29T04:49:06.079Z,32.78
2018-05-29T04:54:08.605Z,32.71
2018-05-29T04:59:11.189Z,34.32
2018-05-29T05:04:13.699Z,34.96
2018-05-29T05:09:16.191Z,35.09
2018-05-29T05:14:18.781Z,35.91
2018-05-29T05:19:21.287Z,34.99
2018-05-29T05:24:23.794Z,35.27
2018-05-29T05:29:26.311Z,35.80
2018-05-29T05:34:28.824Z,35.77
2018-05-29T05:39:31.340Z,36.70
2018-05-29T05:44:33.838Z,36.56
2018-05-29T05:49:36.591Z,36.91
2018-05-29T05:54:39.101Z,38.11
2018-05-29T05:59:41.588Z,38.83
2018-05-29T06:04:44.079Z,38.96
2018-05-29T06:09:46.588Z,39.14
2018-05-29T06:14:49.127Z,38.50
2018-05-29T06:19:51.657Z,38.29
2018-05-29T06:24:54.201Z,40.28
2018-05-29T06:29:56.686Z,38.83
2018-05-29T06:34:59.207Z,38.99
2018-05-29T06:40:01.788Z,37.22
2018-05-29T06:45:04.358Z,39.88
2018-05-29T06:50:06.792Z,37.94
2018-05-29T06:55:09.355Z,39.49
2018-05-29T07:00:11.849Z,39.17
2018-05-29T07:05:14.380Z,39.00
2018-05-29T07:10:16.913Z,39.74
2018-05-29T07:15:19.399Z,38.79
2018-05-29T07:20:22.228Z,38.27
2018-05-29T07:25:24.738Z,38.84
2018-05-29T07:30:27.272Z,39.23
2018-05-29T07:35:29.760Z,37.54
2018-05-29T07:40:32.234Z,38.74
2018-05-29T07:45:34.756Z,37.61
2018-05-29T07:50:37.245Z,38.19
2018-05-29T07:55:39.734Z,37.42
2018-05-29T08:00:42.233Z,39.87
2018-05-29T08:05:44.744Z,38.67
2018-05-29T08:10:47.241Z,38.91
2018-05-29T08:15:49.747Z,38.04
2018-05-29T08:20:52.282Z,38.03
2018-05-29T08:25:54.845Z,38.10
2018-05-29T08:30:57.404Z,39.15
2018-05-29T08:35:59.932Z,37.32
2018-05-29T08:41:02.425Z,36.66
2018-05-29T08:46:04.935Z,38.29
2018-05-29T08:51:07.422Z,39.53
2018-05-29T08:56:09.916Z,40.09
2018-05-29T09:01:12.393Z,38.20
2018-05-29T09:06:14.866Z,38.37
2018-05-29T09:11:17.357Z,38.10
2018-05-29T09:16:19.865Z,36.50
2018-05-29T09:21:22.380Z,36.50
2018-05-29T09:26:24.912Z,36.49
2018-05-29T09:31:27.425Z,37.57
2018-05-29T09:36:29.919Z,38.43
2018-05-29T09:41:32.470Z,37.66
2018-05-29T09:46:35.609Z,37.16
2018-05-29T09:51:38.113Z,36.80
2018-05-29T09:56:40.661Z,36.23
2018-05-29T10:01:43.133Z,36.47
2018-05-29T10:06:45.626Z,35.87
2018-05-29T10:11:48.168Z,36.91
2018-05-29T10:16:50.693Z,36.78
2018-05-29T10:21:53.496Z,36.63
2018-05-29T10:26:56.047Z,36.44
2018-05-29T10:31:58.544Z,35.91
2018-05-29T10:37:01.036Z,35.35
2018-05-29T10:42:03.684Z,34.81
2018-05-29T10:47:06.135Z,35.10
2018-05-29T10:52:08.646Z,34.17
2018-05-29T10:57:11.176Z,34.37
2018-05-29T11:02:13.758Z,34.33
2018-05-29T11:07:16.517Z,33.82
2018-05-29T11:12:19.090Z,33.87
2018-05-29T11:17:21.614Z,34.55
2018-05-29T11:22:24.145Z,34.91
2018-05-29T11:27:26.659Z,33.77
2018-05-29T11:32:29.180Z,33.48
2018-05-29T11:37:31.679Z,34.26
2018-05-29T11:42:34.162Z,34.05
2018-05-29T11:47:36.659Z,34.01
2018-05-29T11:52:39.257Z,34.01
2018-05-29T11:57:41.760Z,33.74
2018-05-29T12:02:44.818Z,33.83
2018-05-29T12:07:47.343Z,33.81
2018-05-29T12:12:49.864Z,34.29
2018-05-29T12:17:52.402Z,34.23
2018-05-29T12:22:54.919Z,34.32
2018-05-29T12:27:57.412Z,34.45
2018-05-29T12:32:59.883Z,34.53
2018-05-29T12:38:02.370Z,35.09
2018-05-29T12:43:04.889Z,34.16
2018-05-29T12:48:07.350Z,34.39
2018-05-29T12:53:09.838Z,34.67
2018-05-29T12:58:12.320Z,33.61
2018-05-29T13:03:14.826Z,34.90
2018-05-29T13:08:17.379Z,34.84
2018-05-29T13:13:19.903Z,34.49
2018-05-29T13:18:22.423Z,34.30
2018-05-29T13:23:24.982Z,35.13
2018-05-29T13:28:27.515Z,34.96
2018-05-29T13:33:29.999Z,34.96
2018-05-29T13:38:32.498Z,35.06
2018-05-29T13:43:34.981Z,34.65
2018-05-29T13:48:37.570Z,34.58
2018-05-29T13:53:40.033Z,35.29
2018-05-29T13:58:42.526Z,35.17
2018-05-29T14:03:45.033Z,35.44
2018-05-29T14:08:48.241Z,34.15
2018-05-29T14:13:51.891Z,34.79
2018-05-29T14:18:54.463Z,34.71
2018-05-29T14:23:56.979Z,34.41
2018-05-29T14:28:59.501Z,34.68
2018-05-29T14:34:02.178Z,34.46
2018-05-29T14:39:05.393Z,35.04
2018-05-29T14:44:08.043Z,35.38
2018-05-29T14:49:11.473Z,34.89
2018-05-29T14:54:14.206Z,34.87
2018-05-29T14:59:16.709Z,34.43
2018-05-29T15:04:19.230Z,34.51
2018-05-29T15:09:21.728Z,33.90
2018-05-29T15:14:24.371Z,34.58
2018-05-29T15:19:26.931Z,34.24
2018-05-29T15:24:29.452Z,34.39
2018-05-29T15:29:32.064Z,34.45
2018-05-29T15:34:34.557Z,34.94
2018-05-29T15:39:37.112Z,34.23
2018-05-29T15:44:39.706Z,34.65
2018-05-29T15:49:42.174Z,34.38
2018-05-29T15:54:44.697Z,33.97
2018-05-29T15:59:47.190Z,33.86
2018-05-29T16:04:49.734Z,34.28
2018-05-29T16:09:52.212Z,33.87
2018-05-29T16:14:55.225Z,33.94
2018-05-29T16:19:57.822Z,34.24
2018-05-29T16:25:00.390Z,34.18
2018-05-29T16:30:02.904Z,34.25
2018-05-29T16:35:05.404Z,33.91
2018-05-29T16:40:07.998Z,33.15
2018-05-29T16:45:10.478Z,32.68
2018-05-29T16:50:12.963Z,32.60
2018-05-29T16:55:15.530Z,33.10
2018-05-29T17:00:18.284Z,32.68
2018-05-29T17:05:20.775Z,32.13
2018-05-29T17:10:24.057Z,32.27
2018-05-29T17:15:26.632Z,31.80
2018-05-29T17:20:29.086Z,32.04
2018-05-29T17:25:31.593Z,32.03
2018-05-29T17:30:34.109Z,31.54
2018-05-29T17:35:36.609Z,31.42
2018-05-29T17:40:39.300Z,31.24
2018-05-29T17:45:41.807Z,31.34
2018-05-29T17:50:44.285Z,31.06
2018-05-29T17:55:47.177Z,30.56
2018-05-29T18:00:49.791Z,30.64
2018-05-29T18:05:52.281Z,30.26
2018-05-29T18:10:57.600Z,30.07
2018-05-29T18:16:00.134Z,29.84
2018-05-29T18:21:04.781Z,29.71
2018-05-29T18:26:07.304Z,29.47
2018-05-29T18:31:09.851Z,29.22
2018-05-29T18:36:18.156Z,28.72
2018-05-29T18:41:24.203Z,28.36
2018-05-29T18:46:27.018Z,28.08
2018-05-29T18:51:32.961Z,27.93
2018-05-29T18:56:37.064Z,27.69
2018-05-29T19:01:39.689Z,27.45
2018-05-29T19:06:42.396Z,27.25
2018-05-29T19:11:44.977Z,27.06
2018-05-29T19:16:49.090Z,26.75
2018-05-29T19:21:52.135Z,26.60
2018-05-29T19:26:55.873Z,26.37
2018-05-29T19:31:58.344Z,26.45
2018-05-29T19:37:00.944Z,26.31
2018-05-29T19:42:05.595Z,26.19
2018-05-29T19:47:08.108Z,26.06
2018-05-29T19:52:10.814Z,25.99
2018-05-29T19:57:13.523Z,25.96
2018-05-29T20:02:16.034Z,25.73
2018-05-29T20:07:18.581Z,25.56
2018-05-29T20:12:21.047Z,25.42
2018-05-29T20:17:30.540Z,25.35
2018-05-29T20:22:33.033Z,25.15
2018-05-29T20:27:35.879Z,25.14
2018-05-29T20:32:39.566Z,25.11
2018-05-29T20:37:42.080Z,25.05
2018-05-29T20:42:44.559Z,24.90
2018-05-29T20:47:47.776Z,24.88
2018-05-29T20:52:51.600Z,24.86
2018-05-29T20:57:54.084Z,24.77
2018-05-29T21:02:57.973Z,24.65
2018-05-29T21:08:01.072Z,24.41
2018-05-29T21:13:03.773Z,24.26
2018-05-29T21:18:06.852Z,24.31
2018-05-29T21:23:09.376Z,24.17
2018-05-29T21:28:12.284Z,24.19
2018-05-29T21:33:15.467Z,24.10
2018-05-29T21:38:17.971Z,24.06
2018-05-29T21:43:20.471Z,23.97
2018-05-29T21:48:22.954Z,23.91
2018-05-29T21:53:26.194Z,23.80
2018-05-29T21:58:28.730Z,23.72
2018-05-29T22:03:31.213Z,23.55
2018-05-29T22:08:33.789Z,23.36
2018-05-29T22:13:36.313Z,23.33
2018-05-29T22:18:38.814Z,23.20
2018-05-29T22:23:41.303Z,23.09
2018-05-29T22:28:43.792Z,23.03
2018-05-29T22:33:46.282Z,22.90
2018-05-29T22:38:48.743Z,22.79
2018-05-29T22:43:51.290Z,22.46
2018-05-29T22:48:53.813Z,22.34
2018-05-29T22:53:56.282Z,22.16
2018-05-29T22:58:58.844Z,22.17
2018-05-29T23:04:01.300Z,22.01
2018-05-29T23:09:03.814Z,21.87
2018-05-29T23:14:06.365Z,21.82
2018-05-29T23:19:08.868Z,21.49
2018-05-29T23:24:11.363Z,21.45
2018-05-29T23:29:13.832Z,21.35
2018-05-29T23:34:16.372Z,21.19
2018-05-29T23:39:18.840Z,21.11
2018-05-29T23:44:21.326Z,20.89
2018-05-29T23:49:23.827Z,20.80
2018-05-29T23:54:26.306Z,20.64
2018-05-29T23:59:28.792Z,20.59
